Flight Track Log - Related Links

Times and Time Zones

All times are in EDT time to prevent confusion due to time zone crossing. See the N758FR flight status page for this flight to view local times or setup timezone preferences in your user account.

Time Position Orientation Groundspeed Altitude Reporting Facility
EDT Latitude Longitude Course Direction KTS MPH feet Rate Location/Type
Sun 12:02:01 PM 41.0214 -71.8872 251° West 116 133 4,500  Level Boston Center
Sun 12:05:00 PM 41.0173 -72.0133 268° West  Level FlightAware Approximate
Sun 12:08:00 PM 41.0131 -72.1599 251° West  Level Estimated
Sun 12:09:00 PM 41.0025 -72.1998 251° West  Level Estimated
Sun 12:12:00 PM 40.9264 -72.2914 243° Southwest  Level FlightAware Approximate
Sun 12:13:00 PM 40.9139 -72.3301 255° West  Level FlightAware Approximate
Sun 12:14:00 PM 40.9053 -72.3708 255° West  Level FlightAware Approximate
Sun 12:15:00 PM 40.8968 -72.4114 255° West  Level FlightAware Approximate
Sun 12:16:00 PM 40.8883 -72.4521 254° West  Level FlightAware Approximate
Sun 12:17:00 PM 40.8797 -72.4927 254° West  Level FlightAware Approximate
Sun 12:18:00 PM 40.8712 -72.5334 254° West  Level FlightAware Approximate
Sun 12:19:00 PM 40.8626 -72.5740 254° West  Level FlightAware Approximate
Sun 12:20:00 PM 40.8540 -72.6146 254° West  Level FlightAware Approximate
Sun 12:21:00 PM 40.8468 -72.6557 259° West  Level FlightAware Approximate
Sun 12:22:00 PM 40.8409 -72.6972 259° West  Level FlightAware Approximate
Sun 12:23:00 PM 40.8350 -72.7386 259° West  Level FlightAware Approximate
Sun 12:24:00 PM 40.8291 -72.7800 259° West  Level FlightAware Approximate
Sun 12:25:00 PM 40.8231 -72.8214 259° West  Level FlightAware Approximate
Sun 12:26:00 PM 40.8172 -72.8629 259° West  Level FlightAware Approximate
Sun 12:27:00 PM 40.8167 -72.8667 259° West  Level FlightAware Approximate
Sun 12:28:00 PM 40.8219 -72.8669 259° West  Level Estimated
Sun 12:29:00 PM 40.8167 -72.8667 259° West  Level FlightAware Approximate
Sun 12:30:00 PM 40.8219 -72.8669 259° West  Level Estimated
Sun 12:31:00 PM 40.8167 -72.8667 259° West  Level FlightAware Approximate
Sun 12:32:00 PM 40.8219 -72.8669 259° West  Level Estimated
Sun 12:33:00 PM 40.8167 -72.8667 259° West  Level FlightAware Approximate
Sun 12:34:00 PM 40.8219 -72.8669 259° West  Level Estimated
Sun 12:35:00 PM 40.8167 -72.8667 259° West  Level FlightAware Approximate
Sun 12:36:00 PM 40.8219 -72.8669 259° West  Level Estimated
Sun 12:37:00 PM 40.8167 -72.8667 259° West  Level FlightAware Approximate
Sun 12:38:00 PM 40.8219 -72.8669 259° West  Level Estimated
Sun 12:39:00 PM 40.8167 -72.8667 259° West  Level FlightAware Approximate
Sun 12:40:00 PM 40.8219 -72.8669 259° West  Level Estimated
Sun 12:41:00 PM 40.8167 -72.8667 259° West  Level FlightAware Approximate
Sun 12:42:00 PM 40.8219 -72.8669 259° West  Level Estimated

Login

Don't have an account? Register now (free) for customized features, flight alerts, and more!